createdAt,value
2022-08-01T00:02:54.302Z,22.70267
2022-08-01T00:07:55.231Z,22.59638
2022-08-01T00:12:56.126Z,22.56245
2022-08-01T00:17:57.027Z,22.53661
2022-08-01T00:22:57.930Z,22.54953
2022-08-01T00:27:58.841Z,22.53628
2022-08-01T00:32:59.902Z,22.36925
2022-08-01T00:43:01.422Z,22.49396
2022-08-01T00:48:02.346Z,22.37054
2022-08-01T00:53:03.244Z,22.30334
2022-08-01T00:58:06.050Z,22.20318
2022-08-01T01:03:07.638Z,22.01224
2022-08-01T01:08:08.541Z,21.95409
2022-08-01T01:13:09.521Z,21.8549
2022-08-01T01:18:10.431Z,21.90401
2022-08-01T01:23:11.323Z,21.9192
2022-08-01T01:28:12.248Z,22.06103
2022-08-01T01:33:13.190Z,22.03163
2022-08-01T01:38:14.103Z,21.87655
2022-08-01T01:43:15.018Z,21.66816
2022-08-01T01:48:16.045Z,21.5567
2022-08-01T01:53:16.966Z,21.5441
2022-08-01T01:58:17.944Z,21.51987
2022-08-01T02:03:18.907Z,21.2669
2022-08-01T02:08:19.860Z,21.06045
2022-08-01T02:13:21.346Z,21.25624
2022-08-01T02:18:23.975Z,21.11376
2022-08-01T02:23:24.952Z,20.97613
2022-08-01T02:28:25.935Z,20.8637
2022-08-01T02:33:27.829Z,20.91894
2022-08-01T02:38:29.500Z,20.5949
2022-08-01T02:43:30.744Z,20.45823
2022-08-01T02:48:31.624Z,20.39006
2022-08-01T02:53:44.022Z,20.29831
2022-08-01T02:58:45.737Z,20.17328
2022-08-01T03:03:46.764Z,20.16488
2022-08-01T03:08:47.679Z,20.17037
2022-08-01T03:13:48.582Z,20.55096
2022-08-01T03:18:49.675Z,20.67954
2022-08-01T03:23:54.759Z,20.55419
2022-08-01T03:28:56.184Z,20.44983
2022-08-01T03:33:57.094Z,20.37876
2022-08-01T03:38:58.434Z,20.12579
2022-08-01T03:43:59.560Z,19.96813
2022-08-01T03:49:00.510Z,20.02273
2022-08-01T03:54:01.854Z,19.90513
2022-08-01T03:59:02.777Z,19.93905
2022-08-01T04:04:03.718Z,19.84698
2022-08-01T04:09:04.685Z,19.73422
2022-08-01T04:19:07.957Z,19.68027
2022-08-01T04:24:09.208Z,19.92419
2022-08-01T04:29:10.148Z,19.94971
2022-08-01T04:34:11.114Z,19.87088
2022-08-01T04:39:12.093Z,19.89899
2022-08-01T04:44:12.978Z,19.86055
2022-08-01T04:49:14.006Z,19.95521
2022-08-01T04:54:14.975Z,19.89964
2022-08-01T04:59:20.215Z,19.82953
2022-08-01T05:04:21.416Z,19.66929
2022-08-01T05:09:22.369Z,19.64182
2022-08-01T05:14:23.265Z,19.63019
2022-08-01T05:19:24.186Z,19.68447
2022-08-01T05:24:25.101Z,19.83728
2022-08-01T05:29:26.719Z,19.79496
2022-08-01T05:34:27.663Z,19.85925
2022-08-01T05:39:29.078Z,20.03953
2022-08-01T05:44:30.098Z,20.29023
2022-08-01T05:49:31.045Z,20.28087
2022-08-01T05:54:31.968Z,20.37456
2022-08-01T05:59:32.963Z,20.36486
2022-08-01T06:04:33.881Z,20.40428
2022-08-01T06:09:34.943Z,20.44757
2022-08-01T06:14:35.855Z,20.45888
2022-08-01T06:19:36.763Z,20.518
2022-08-01T06:24:37.689Z,20.74577
2022-08-01T06:29:38.605Z,20.74933
2022-08-01T06:34:39.537Z,20.67663
2022-08-01T06:39:40.473Z,21.0052
2022-08-01T06:44:42.438Z,21.16674
2022-08-01T06:49:43.479Z,21.27917
2022-08-01T06:54:44.375Z,21.15963
2022-08-01T06:59:54.525Z,21.0976
2022-08-01T07:04:55.723Z,20.95836
2022-08-01T07:09:56.625Z,20.76031
2022-08-01T07:14:57.596Z,20.97063
2022-08-01T07:19:58.542Z,21.15253
2022-08-01T07:24:59.455Z,21.45234
2022-08-01T07:30:00.386Z,21.75507
2022-08-01T07:35:01.409Z,21.77284
2022-08-01T07:40:02.623Z,21.64264
2022-08-01T07:45:03.524Z,21.61065
2022-08-01T07:50:04.462Z,21.31342
2022-08-01T07:55:05.365Z,21.06497
2022-08-01T08:00:06.286Z,20.87274
2022-08-01T08:05:07.246Z,20.98453
2022-08-01T08:10:08.219Z,21.36124
2022-08-01T08:15:09.247Z,21.42811
2022-08-01T08:20:10.171Z,21.32796
2022-08-01T08:25:11.102Z,21.29759
2022-08-01T08:30:12.808Z,21.52891
2022-08-01T08:35:18.444Z,21.56381
2022-08-01T08:40:24.048Z,21.45008
2022-08-01T08:45:29.631Z,21.28984
2022-08-01T08:50:57.231Z,21.14219
2022-08-01T08:55:58.421Z,21.21294
2022-08-01T09:00:59.339Z,21.81807
2022-08-01T09:06:00.301Z,22.67521
2022-08-01T09:11:01.364Z,23.04159
2022-08-01T09:16:02.492Z,23.2545
2022-08-01T09:21:03.411Z,23.20991
2022-08-01T09:26:04.307Z,23.28745
2022-08-01T09:31:05.198Z,23.19021
2022-08-01T09:36:06.146Z,23.11105
2022-08-01T09:41:14.340Z,23.24448
2022-08-01T09:46:15.273Z,23.11363
2022-08-01T09:51:57.826Z,22.934
2022-08-01T09:57:01.809Z,22.82544
2022-08-01T10:02:02.704Z,22.90363
2022-08-01T10:07:04.305Z,22.89361
2022-08-01T10:12:05.581Z,22.7912
2022-08-01T10:17:06.753Z,22.58345
2022-08-01T10:22:09.947Z,22.41706
2022-08-01T10:27:12.596Z,22.38605
2022-08-01T10:32:13.881Z,22.15214
2022-08-01T10:37:14.829Z,22.14018
2022-08-01T10:42:16.739Z,22.02581
2022-08-01T10:47:22.813Z,22.2048
2022-08-01T10:52:24.602Z,22.27523
2022-08-01T10:57:27.607Z,22.45648
2022-08-01T11:02:31.999Z,22.70816
2022-08-01T11:07:34.848Z,22.6765
2022-08-01T11:12:36.474Z,22.67069
2022-08-01T11:17:41.996Z,22.71333
2022-08-01T11:22:43.670Z,22.78312
2022-08-01T11:27:45.575Z,22.87617
2022-08-01T11:33:10.393Z,23.02091
2022-08-01T11:38:13.010Z,22.96598
2022-08-01T11:43:13.894Z,23.36209
2022-08-01T11:48:14.870Z,23.45352
2022-08-01T11:53:17.052Z,23.27582
2022-08-01T11:58:29.468Z,22.5673
2022-08-01T12:03:33.758Z,22.19285
2022-08-01T12:08:35.052Z,22.2216
2022-08-01T12:13:35.976Z,22.14697
2022-08-01T12:18:36.937Z,22.09851
2022-08-01T12:23:37.864Z,22.21772
2022-08-01T12:28:38.786Z,22.56342
2022-08-01T12:33:39.715Z,23.01025
2022-08-01T12:38:40.646Z,23.08133
2022-08-01T12:43:41.540Z,23.35143
2022-08-01T12:48:42.490Z,23.55109
2022-08-01T12:53:43.433Z,23.70941
2022-08-01T12:58:44.364Z,23.84801
2022-08-01T13:03:45.275Z,23.95043
2022-08-01T13:08:46.438Z,24.08968
2022-08-01T13:13:47.427Z,24.34783
2022-08-01T13:18:48.304Z,24.45445
2022-08-01T13:24:01.317Z,25.00176
2022-08-01T13:29:04.078Z,25.04538
2022-08-01T13:34:04.977Z,24.66026
2022-08-01T13:39:05.926Z,24.41212
2022-08-01T13:44:06.860Z,24.10163
2022-08-01T13:49:16.372Z,23.96141
2022-08-01T13:54:17.629Z,24.24896
2022-08-01T13:59:18.566Z,24.49063
2022-08-01T14:04:19.809Z,24.75492
2022-08-01T14:15:01.461Z,25.18463
2022-08-01T14:20:02.514Z,24.85573
2022-08-01T14:25:03.762Z,24.61147
2022-08-01T14:30:06.319Z,24.88481
2022-08-01T14:35:07.437Z,24.99853
2022-08-01T14:40:08.314Z,25.35975
2022-08-01T14:45:10.312Z,25.32292
2022-08-01T14:50:11.296Z,25.6389
2022-08-01T14:55:12.174Z,25.49254
2022-08-01T15:00:13.077Z,26.31611
2022-08-01T15:05:13.985Z,26.57136
2022-08-01T15:10:14.965Z,26.77103
2022-08-01T15:15:15.899Z,26.24212
2022-08-01T15:20:16.823Z,26.17363
2022-08-01T15:25:17.769Z,25.97298
2022-08-01T15:30:26.800Z,25.68414
2022-08-01T15:35:28.628Z,25.38334
2022-08-01T15:40:29.648Z,25.18722
2022-08-01T15:45:47.513Z,25.09094
2022-08-01T15:50:48.973Z,25.09805
2022-08-01T15:55:52.325Z,25.39723
2022-08-01T16:00:53.704Z,25.54198
2022-08-01T16:05:54.609Z,25.66507
2022-08-01T16:10:55.633Z,25.7242
2022-08-01T16:15:56.555Z,25.48511
2022-08-01T16:20:57.484Z,25.35943
2022-08-01T16:25:58.410Z,25.37461
2022-08-01T16:31:08.937Z,25.32033
2022-08-01T16:36:17.088Z,25.23051
2022-08-01T16:41:19.914Z,25.1785
2022-08-01T16:46:21.527Z,25.15943
2022-08-01T16:51:22.432Z,25.11679
2022-08-01T16:56:23.461Z,25.10839
2022-08-01T17:01:58.817Z,25.15976
2022-08-01T17:07:03.780Z,25.04991
2022-08-01T17:12:04.896Z,24.99853
2022-08-01T17:17:06.042Z,24.93456
2022-08-01T17:22:07.100Z,24.8315
2022-08-01T17:27:12.549Z,24.72649
2022-08-01T17:32:14.174Z,24.51164
2022-08-01T17:37:15.070Z,24.47545
2022-08-01T17:42:15.988Z,24.39371
2022-08-01T17:47:34.394Z,24.29258
2022-08-01T17:52:49.305Z,24.22409
2022-08-01T17:57:50.214Z,24.15591
2022-08-01T18:02:51.517Z,24.08063
2022-08-01T18:08:01.459Z,23.97434
2022-08-01T18:13:03.061Z,23.90617
2022-08-01T18:18:04.033Z,23.82992
2022-08-01T18:23:04.960Z,23.75496
2022-08-01T18:28:22.305Z,23.65448
2022-08-01T18:33:33.633Z,23.54463
2022-08-01T18:38:35.179Z,23.42703
2022-08-01T18:43:38.312Z,23.29812
2022-08-01T18:48:39.266Z,23.13173
2022-08-01T18:53:40.172Z,23.0432
2022-08-01T18:58:43.050Z,22.98408
2022-08-01T19:03:44.080Z,22.8655
2022-08-01T19:08:45.137Z,22.8038
2022-08-01T19:13:46.635Z,22.76793
2022-08-01T19:18:47.601Z,22.6597
2022-08-01T19:23:49.340Z,22.62061
2022-08-01T19:28:50.286Z,22.56278
2022-08-01T19:33:51.417Z,22.46359
2022-08-01T19:38:52.396Z,22.38831
2022-08-01T19:43:53.336Z,22.36149
2022-08-01T19:48:54.384Z,22.31368
2022-08-01T19:53:55.453Z,22.37571
2022-08-01T19:58:59.500Z,22.37829
2022-08-01T20:04:01.457Z,22.40285
2022-08-01T20:09:04.890Z,22.33209
2022-08-01T20:14:05.795Z,22.22354
2022-08-01T20:19:06.793Z,22.125
2022-08-01T20:24:07.774Z,22.10594
2022-08-01T20:29:08.702Z,22.08526
2022-08-01T20:34:09.891Z,22.05101
2022-08-01T20:39:17.046Z,22.01257
2022-08-01T20:44:22.552Z,21.915
2022-08-01T20:49:23.710Z,21.85975
2022-08-01T20:54:34.758Z,21.79642
2022-08-01T20:59:39.951Z,21.74312
2022-08-01T21:04:57.353Z,21.77962
2022-08-01T21:09:58.325Z,21.74667
2022-08-01T21:14:59.274Z,21.67107
2022-08-01T21:20:05.153Z,21.56671
2022-08-01T21:25:11.221Z,21.53958
2022-08-01T21:30:12.159Z,21.44911
2022-08-01T21:35:15.978Z,21.36027
2022-08-01T21:40:17.561Z,21.21165
2022-08-01T21:45:18.540Z,21.0892
2022-08-01T21:50:19.517Z,21.04753
2022-08-01T21:55:20.413Z,20.95545
2022-08-01T22:00:25.412Z,20.89762
2022-08-01T22:05:49.637Z,20.86563
2022-08-01T22:10:52.174Z,20.80877
2022-08-01T22:15:53.086Z,20.7784
2022-08-01T22:20:54.026Z,20.72962
2022-08-01T22:25:54.951Z,20.64497
2022-08-01T22:30:55.882Z,20.5571
2022-08-01T22:35:56.927Z,20.50185
2022-08-01T22:40:57.848Z,20.43626
2022-08-01T22:45:58.789Z,20.38425
2022-08-01T22:51:00.872Z,20.32319
2022-08-01T22:56:01.886Z,20.26697
2022-08-01T23:01:03.170Z,20.24856
2022-08-01T23:06:04.103Z,20.17522
2022-08-01T23:11:05.039Z,20.1064
2022-08-01T23:16:06.032Z,20.03662
2022-08-01T23:21:06.935Z,19.87831
2022-08-01T23:26:07.842Z,19.82081
2022-08-01T23:31:08.770Z,19.76459
2022-08-01T23:36:10.417Z,19.62729
2022-08-01T23:41:11.379Z,19.53489
2022-08-01T23:46:12.278Z,19.45186
2022-08-01T23:51:24.018Z,19.38498
2022-08-01T23:56:26.809Z,19.31455
